createdAt,value
2023-04-11T00:00:42.186Z,0.00
2023-04-11T00:01:42.323Z,0.00
2023-04-11T00:02:42.516Z,0.00
2023-04-11T00:03:42.475Z,0.00
2023-04-11T00:04:42.623Z,0.00
2023-04-11T00:05:42.600Z,0.00
2023-04-11T00:06:42.598Z,0.00
2023-04-11T00:07:42.664Z,0.00
2023-04-11T00:08:42.729Z,0.00
2023-04-11T00:09:42.822Z,0.00
2023-04-11T00:10:44.970Z,0.00
2023-04-11T00:11:42.926Z,0.00
2023-04-11T00:12:42.988Z,0.00
2023-04-11T00:13:43.041Z,0.00
2023-04-11T00:14:43.140Z,0.00
2023-04-11T00:15:43.136Z,0.00
2023-04-11T00:16:43.257Z,0.00
2023-04-11T00:17:43.345Z,0.00
2023-04-11T00:18:43.357Z,0.00
2023-04-11T00:19:43.394Z,0.00
2023-04-11T00:20:43.468Z,0.00
2023-04-11T00:21:43.556Z,0.00
2023-04-11T00:22:43.566Z,0.00
2023-04-11T00:23:43.637Z,0.00
2023-04-11T00:24:43.814Z,0.00
2023-04-11T00:25:43.751Z,0.00
2023-04-11T00:26:43.828Z,0.00
2023-04-11T00:27:43.878Z,0.00
2023-04-11T00:28:43.945Z,0.00
2023-04-11T00:29:44.110Z,0.00
2023-04-11T00:30:44.051Z,0.00
2023-04-11T00:31:44.227Z,0.00
2023-04-11T00:32:44.176Z,0.00
2023-04-11T00:33:44.192Z,0.00
2023-04-11T00:34:44.292Z,0.00
2023-04-11T00:35:44.327Z,0.00
2023-04-11T00:36:44.485Z,0.00
2023-04-11T00:37:44.449Z,0.00
2023-04-11T00:38:44.456Z,0.00
2023-04-11T00:39:44.514Z,0.00
2023-04-11T00:40:44.610Z,0.00
2023-04-11T00:41:44.668Z,0.00
2023-04-11T00:42:44.724Z,0.00
2023-04-11T00:43:44.789Z,0.00
2023-04-11T00:44:44.850Z,0.00
2023-04-11T00:45:44.932Z,0.00
2023-04-11T00:46:46.193Z,0.00
2023-04-11T00:47:45.046Z,0.00
2023-04-11T00:48:45.050Z,0.00
2023-04-11T00:49:45.241Z,0.00
2023-04-11T00:50:45.180Z,0.00
2023-04-11T00:51:45.251Z,0.00
2023-04-11T00:52:45.314Z,0.00
2023-04-11T00:53:45.438Z,0.00
2023-04-11T00:54:45.434Z,0.00
2023-04-11T00:55:45.476Z,0.00
2023-04-11T00:56:45.574Z,0.00
2023-04-11T00:57:45.610Z,0.00
2023-04-11T00:58:45.656Z,0.00
2023-04-11T00:59:45.820Z,0.00
2023-04-11T01:00:45.894Z,0.00
2023-04-11T01:01:45.975Z,0.00
2023-04-11T01:02:45.958Z,0.00
2023-04-11T01:03:46.114Z,0.00
2023-04-11T01:04:46.015Z,0.00
2023-04-11T01:05:46.113Z,0.00
2023-04-11T01:06:46.156Z,0.00
2023-04-11T01:07:46.223Z,0.00
2023-04-11T01:08:46.295Z,0.00
2023-04-11T01:09:46.365Z,0.00
2023-04-11T01:10:46.466Z,0.00
2023-04-11T01:11:46.691Z,0.00
2023-04-11T01:12:46.551Z,0.00
2023-04-11T01:13:46.618Z,0.00
2023-04-11T01:14:46.682Z,0.00
2023-04-11T01:15:46.728Z,0.00
2023-04-11T01:16:46.857Z,0.00
2023-04-11T01:17:46.853Z,0.00
2023-04-11T01:18:46.876Z,0.00
2023-04-11T01:19:46.927Z,0.00
2023-04-11T01:20:47.003Z,0.00
2023-04-11T01:21:47.090Z,0.00
2023-04-11T01:22:47.170Z,0.00
2023-04-11T01:23:47.209Z,0.00
2023-04-11T01:24:47.259Z,0.00
2023-04-11T01:25:47.308Z,0.00
2023-04-11T01:26:47.389Z,0.00
2023-04-11T01:27:47.409Z,0.00
2023-04-11T01:28:47.466Z,0.00
2023-04-11T01:29:47.548Z,0.00
2023-04-11T01:30:47.651Z,0.00
2023-04-11T01:31:47.736Z,0.00
2023-04-11T01:32:47.801Z,0.00
2023-04-11T01:33:47.864Z,0.00
2023-04-11T01:34:47.903Z,0.00
2023-04-11T01:35:47.992Z,0.00
2023-04-11T01:38:41.968Z,0.00
2023-04-11T01:39:43.028Z,0.00
2023-04-11T01:40:43.127Z,0.00
2023-04-11T01:41:43.162Z,0.00
2023-04-11T01:42:43.263Z,0.00
2023-04-11T01:43:43.383Z,0.00
2023-04-11T01:44:43.382Z,0.00
2023-04-11T01:45:43.396Z,0.00
2023-04-11T01:46:43.480Z,0.00
2023-04-11T01:47:43.586Z,0.00
2023-04-11T01:48:43.759Z,0.00
2023-04-11T01:49:43.640Z,0.00
2023-04-11T01:50:43.699Z,0.00
2023-04-11T01:51:43.781Z,0.00
2023-04-11T01:54:58.131Z,0.00
2023-04-11T01:57:53.162Z,0.00
2023-04-11T01:58:54.492Z,0.00
2023-04-11T01:59:54.245Z,0.00
2023-04-11T02:00:54.332Z,0.00
2023-04-11T02:01:54.521Z,0.00
2023-04-11T02:02:54.609Z,0.00
2023-04-11T02:05:29.408Z,0.00
2023-04-11T02:06:30.473Z,0.00
2023-04-11T02:07:30.423Z,0.00
2023-04-11T02:08:30.465Z,0.00
2023-04-11T02:09:30.493Z,0.00
2023-04-11T02:10:30.593Z,0.00
2023-04-11T02:11:30.627Z,0.00
2023-04-11T02:12:30.681Z,0.00
2023-04-11T02:13:30.865Z,0.00
2023-04-11T02:14:30.824Z,0.00
2023-04-11T02:15:30.964Z,0.00
2023-04-11T02:16:30.942Z,0.00
2023-04-11T02:17:31.286Z,0.00
2023-04-11T02:18:31.095Z,0.00
2023-04-11T02:22:24.149Z,0.00
2023-04-11T02:23:25.218Z,0.00
2023-04-11T02:24:25.228Z,0.00
2023-04-11T02:25:25.289Z,0.00
2023-04-11T02:26:25.378Z,0.00
2023-04-11T02:27:25.465Z,0.00
2023-04-11T02:28:25.465Z,0.00
2023-04-11T02:29:25.509Z,0.00
2023-04-11T02:30:25.575Z,0.00
2023-04-11T02:31:25.672Z,0.00
2023-04-11T02:32:25.963Z,0.00
2023-04-11T02:33:25.773Z,0.00
2023-04-11T02:34:25.842Z,0.00
2023-04-11T02:35:48.221Z,0.00
2023-04-11T02:36:25.960Z,0.00
2023-04-11T02:37:26.051Z,0.00
2023-04-11T02:38:26.055Z,0.00
2023-04-11T02:39:26.164Z,0.00
2023-04-11T02:40:26.160Z,0.00
2023-04-11T02:41:26.246Z,0.00
2023-04-11T02:42:26.317Z,0.00
2023-04-11T02:43:26.374Z,0.00
2023-04-11T02:44:26.456Z,0.00
2023-04-11T02:45:26.506Z,0.00
2023-04-11T02:46:26.587Z,0.00
2023-04-11T02:50:19.641Z,0.00
2023-04-11T02:51:20.692Z,0.00
2023-04-11T02:52:20.753Z,0.00
2023-04-11T02:53:20.821Z,0.00
2023-04-11T02:54:20.863Z,0.00
2023-04-11T02:55:20.952Z,0.00
2023-04-11T02:56:21.025Z,0.00
2023-04-11T02:57:21.078Z,0.00
2023-04-11T02:58:21.138Z,0.00
2023-04-11T02:59:21.204Z,0.00
2023-04-11T03:00:21.281Z,0.00
2023-04-11T03:01:21.362Z,0.00
2023-04-11T03:02:21.491Z,0.00
2023-04-11T03:03:21.572Z,0.00
2023-04-11T03:04:21.570Z,0.00
2023-04-11T03:05:21.622Z,0.00
2023-04-11T03:06:21.691Z,0.00
2023-04-11T03:07:21.760Z,0.00
2023-04-11T03:10:15.759Z,0.00
2023-04-11T03:11:16.815Z,0.00
2023-04-11T03:12:16.895Z,0.00
2023-04-11T03:13:16.948Z,0.00
2023-04-11T03:14:17.022Z,0.00
2023-04-11T03:15:17.055Z,0.00
2023-04-11T03:16:17.272Z,0.00
2023-04-11T03:17:17.144Z,0.00
2023-04-11T03:18:17.212Z,0.00
2023-04-11T03:19:17.273Z,0.00
2023-04-11T03:20:17.335Z,0.00
2023-04-11T03:21:17.637Z,0.00
2023-04-11T03:22:17.486Z,0.00
2023-04-11T03:23:17.499Z,0.00
2023-04-11T03:24:17.565Z,0.00
2023-04-11T03:25:17.697Z,0.00
2023-04-11T03:26:22.598Z,0.00
2023-04-11T03:27:17.751Z,0.00
2023-04-11T03:28:17.804Z,0.00
2023-04-11T03:29:17.866Z,0.00
2023-04-11T03:30:17.950Z,0.00
2023-04-11T03:31:18.020Z,0.00
2023-04-11T03:32:18.068Z,0.00
2023-04-11T03:33:18.121Z,0.00
2023-04-11T03:34:18.328Z,0.00
2023-04-11T03:35:18.208Z,0.00
2023-04-11T03:36:18.306Z,0.00
2023-04-11T03:37:19.172Z,0.00
2023-04-11T03:38:18.415Z,0.00
2023-04-11T03:39:18.608Z,0.00
2023-04-11T03:40:18.732Z,0.00
2023-04-11T03:41:18.612Z,0.00
2023-04-11T03:42:18.693Z,0.00
2023-04-11T03:43:18.762Z,0.00
2023-04-11T03:44:18.814Z,0.00
2023-04-11T03:48:47.759Z,0.00
2023-04-11T03:49:48.679Z,0.00
2023-04-11T03:50:48.668Z,0.00
2023-04-11T03:51:49.002Z,0.00
2023-04-11T03:52:48.774Z,0.00
2023-04-11T03:53:48.847Z,0.00
2023-04-11T03:54:48.920Z,0.00
2023-04-11T03:55:49.107Z,0.00
2023-04-11T03:56:49.566Z,0.00
2023-04-11T03:57:49.079Z,0.00
2023-04-11T04:00:43.071Z,0.00
2023-04-11T04:01:44.249Z,0.00
2023-04-11T04:02:44.367Z,0.00
2023-04-11T04:03:44.357Z,0.00
2023-04-11T04:04:44.581Z,0.00
2023-04-11T04:07:38.312Z,0.00
2023-04-11T04:08:39.364Z,0.00
2023-04-11T04:09:39.421Z,0.00
2023-04-11T04:10:39.637Z,0.00
2023-04-11T04:11:39.499Z,0.00
2023-04-11T04:12:39.582Z,0.00
2023-04-11T04:13:39.592Z,0.00
2023-04-11T04:16:33.630Z,0.00
2023-04-11T04:17:34.712Z,0.00
2023-04-11T04:18:34.735Z,0.00
2023-04-11T04:19:34.954Z,0.00
2023-04-11T04:20:34.864Z,0.00
2023-04-11T04:21:34.945Z,0.00
2023-04-11T04:22:34.940Z,0.00
2023-04-11T04:23:35.047Z,0.00
2023-04-11T04:24:35.058Z,0.00
2023-04-11T04:25:35.288Z,0.00
2023-04-11T04:26:35.157Z,0.00
2023-04-11T04:27:35.243Z,0.00
2023-04-11T04:28:35.307Z,0.00
2023-04-11T04:29:35.401Z,0.00
2023-04-11T04:30:35.412Z,0.00
2023-04-11T04:31:35.486Z,0.00
2023-04-11T04:32:35.549Z,0.00
2023-04-11T04:33:35.661Z,0.00
2023-04-11T04:34:35.670Z,0.00
2023-04-11T04:35:35.801Z,0.00
2023-04-11T04:36:35.764Z,0.00
2023-04-11T04:37:35.817Z,0.00
2023-04-11T04:38:35.903Z,0.00
2023-04-11T04:42:28.967Z,0.00
2023-04-11T04:43:29.997Z,0.00
2023-04-11T04:44:30.084Z,0.00
2023-04-11T04:45:30.158Z,0.00
2023-04-11T04:48:24.076Z,0.00
2023-04-11T04:49:25.138Z,0.00
2023-04-11T04:50:25.204Z,0.00
2023-04-11T04:51:25.265Z,0.00
2023-04-11T04:52:25.335Z,0.00
2023-04-11T04:53:25.365Z,0.00
2023-04-11T04:54:25.430Z,0.00
2023-04-11T04:55:25.529Z,0.00
2023-04-11T04:56:25.592Z,0.00
2023-04-11T04:59:20.719Z,0.00
2023-04-11T05:02:15.759Z,0.00
2023-04-11T05:06:58.712Z,0.00
2023-04-11T05:07:59.782Z,4.00
2023-04-11T05:08:59.789Z,4.00
2023-04-11T05:09:59.851Z,0.00
2023-04-11T05:10:59.956Z,0.00
2023-04-11T05:11:59.948Z,0.00
2023-04-11T05:13:00.034Z,0.00
2023-04-11T05:14:00.280Z,4.00
2023-04-11T05:15:00.166Z,0.00
2023-04-11T05:16:00.183Z,4.00
2023-04-11T05:17:00.455Z,0.00
2023-04-11T05:18:00.384Z,4.00
2023-04-11T05:19:00.441Z,4.00
2023-04-11T05:20:00.480Z,4.00
2023-04-11T05:21:00.596Z,4.00
2023-04-11T05:22:00.951Z,4.00
2023-04-11T05:23:00.705Z,4.00
2023-04-11T05:24:01.039Z,0.00
2023-04-11T05:25:00.772Z,0.00
2023-04-11T05:26:00.908Z,0.00
2023-04-11T05:30:43.110Z,4.00
2023-04-11T05:31:43.921Z,4.00
2023-04-11T05:32:44.010Z,4.00
2023-04-11T05:33:44.071Z,0.00
2023-04-11T05:34:44.078Z,4.00
2023-04-11T05:35:44.203Z,4.00
2023-04-11T05:36:44.172Z,4.00
2023-04-11T05:37:44.244Z,4.00
2023-04-11T05:38:47.211Z,4.00
2023-04-11T05:39:44.329Z,4.00
2023-04-11T05:40:44.430Z,4.00
2023-04-11T05:41:44.470Z,4.00
2023-04-11T05:42:44.552Z,4.00
2023-04-11T05:43:44.684Z,4.00
2023-04-11T05:44:44.663Z,4.00
2023-04-11T05:47:32.733Z,4.00
2023-04-11T05:48:46.292Z,4.00
2023-04-11T05:49:33.827Z,4.00
2023-04-11T05:50:33.878Z,4.00
2023-04-11T05:51:33.942Z,4.00
2023-04-11T05:54:29.107Z,8.00
2023-04-11T05:55:30.130Z,8.00
2023-04-11T05:56:30.200Z,4.00
2023-04-11T05:57:30.279Z,8.00
2023-04-11T05:58:30.586Z,4.00
2023-04-11T05:59:30.399Z,8.00
2023-04-11T06:00:30.487Z,8.00
2023-04-11T06:01:30.537Z,4.00
2023-04-11T06:02:30.642Z,4.00
2023-04-11T06:03:30.966Z,4.00
2023-04-11T06:04:30.840Z,0.00
2023-04-11T06:05:30.683Z,4.00
2023-04-11T06:06:30.740Z,4.00
2023-04-11T06:07:30.851Z,4.00
2023-04-11T06:08:30.942Z,4.00
2023-04-11T06:09:32.716Z,4.00
2023-04-11T06:10:31.102Z,4.00
2023-04-11T06:11:31.112Z,8.00
2023-04-11T06:12:31.161Z,4.00
2023-04-11T06:13:31.205Z,4.00
2023-04-11T06:14:31.292Z,8.00
2023-04-11T06:15:31.325Z,4.00
2023-04-11T06:16:31.440Z,4.00
2023-04-11T06:17:31.469Z,8.00
2023-04-11T06:18:31.494Z,8.00
2023-04-11T06:19:31.565Z,8.00
2023-04-11T06:20:31.631Z,4.00
2023-04-11T06:21:31.680Z,4.00
2023-04-11T06:22:31.736Z,4.00
2023-04-11T06:23:31.812Z,4.00
2023-04-11T06:24:31.950Z,8.00
2023-04-11T06:25:31.929Z,4.00
2023-04-11T06:26:31.973Z,4.00
2023-04-11T06:27:32.035Z,4.00
2023-04-11T06:28:32.109Z,8.00
2023-04-11T06:29:32.199Z,8.00
2023-04-11T06:30:32.257Z,8.00
2023-04-11T06:31:32.312Z,8.00
2023-04-11T06:32:32.362Z,4.00
2023-04-11T06:33:32.445Z,8.00
2023-04-11T06:34:32.521Z,12.00
2023-04-11T06:35:32.584Z,12.00
2023-04-11T06:36:32.697Z,12.00
2023-04-11T06:37:32.687Z,12.00
2023-04-11T06:38:32.757Z,12.00
2023-04-11T06:39:32.825Z,8.00
2023-04-11T06:40:32.869Z,8.00
2023-04-11T06:41:32.976Z,8.00
2023-04-11T06:42:33.016Z,8.00
2023-04-11T06:43:33.064Z,8.00
2023-04-11T06:44:33.207Z,12.00
2023-04-11T06:45:33.171Z,8.00
2023-04-11T06:46:33.258Z,12.00
2023-04-11T06:47:33.517Z,16.00
2023-04-11T06:48:33.390Z,16.00
2023-04-11T06:49:33.450Z,16.00
2023-04-11T06:50:33.486Z,20.00
2023-04-11T06:51:33.578Z,20.00
2023-04-11T06:52:33.602Z,16.00
2023-04-11T06:56:24.878Z,20.00
2023-04-11T06:57:25.901Z,20.00
2023-04-11T06:58:25.947Z,24.00
2023-04-11T07:02:35.522Z,20.00
2023-04-11T07:03:36.612Z,20.00
2023-04-11T07:04:36.512Z,20.00
2023-04-11T07:05:38.263Z,20.00
2023-04-11T07:06:36.602Z,20.00
2023-04-11T07:07:37.568Z,20.00
2023-04-11T07:08:36.760Z,24.00
2023-04-11T07:09:36.800Z,24.00
2023-04-11T07:10:36.920Z,24.00
2023-04-11T07:11:36.930Z,28.00
2023-04-11T07:12:37.032Z,20.00
2023-04-11T07:13:37.067Z,24.00
2023-04-11T07:14:37.075Z,20.00
2023-04-11T07:15:37.256Z,24.00
2023-04-11T07:16:37.281Z,28.00
2023-04-11T07:17:37.384Z,28.00
2023-04-11T07:18:37.380Z,32.00
2023-04-11T07:19:37.427Z,32.00
2023-04-11T07:20:37.494Z,32.00
2023-04-11T07:21:37.565Z,32.00
2023-04-11T07:22:37.698Z,36.00
2023-04-11T07:23:37.708Z,32.00
2023-04-11T07:24:37.770Z,32.00
2023-04-11T07:25:37.845Z,28.00
2023-04-11T07:26:37.914Z,28.00
2023-04-11T07:27:37.986Z,32.00
2023-04-11T07:28:38.056Z,32.00
2023-04-11T07:29:38.148Z,40.00
2023-04-11T07:30:38.157Z,44.00
2023-04-11T07:31:38.246Z,40.00
2023-04-11T07:32:38.357Z,36.00
2023-04-11T07:33:38.343Z,28.00
2023-04-11T07:34:38.407Z,28.00
2023-04-11T07:35:38.509Z,20.00
2023-04-11T07:36:38.524Z,20.00
2023-04-11T07:37:38.614Z,24.00
2023-04-11T07:38:38.695Z,24.00
2023-04-11T07:39:38.749Z,20.00
2023-04-11T07:40:38.816Z,20.00
2023-04-11T07:41:38.928Z,20.00
2023-04-11T07:42:38.939Z,16.00
2023-04-11T07:43:38.985Z,12.00
2023-04-11T07:44:39.114Z,12.00
2023-04-11T07:45:39.119Z,12.00
2023-04-11T07:46:39.134Z,12.00
2023-04-11T07:47:39.345Z,16.00
2023-04-11T07:48:39.278Z,20.00
2023-04-11T07:49:39.323Z,24.00
2023-04-11T07:50:39.412Z,28.00
2023-04-11T07:51:39.458Z,28.00
2023-04-11T07:52:39.536Z,20.00
2023-04-11T07:53:39.620Z,12.00
2023-04-11T07:54:39.665Z,16.00
2023-04-11T07:55:39.800Z,16.00
2023-04-11T07:56:39.784Z,20.00
2023-04-11T07:57:39.901Z,24.00
2023-04-11T07:58:39.874Z,24.00
2023-04-11T07:59:39.947Z,28.00
2023-04-11T08:00:40.019Z,36.00
2023-04-11T08:01:40.108Z,48.00
2023-04-11T08:02:40.508Z,52.00
2023-04-11T08:03:40.414Z,64.00
2023-04-11T08:04:40.359Z,116.00
2023-04-11T08:05:40.316Z,52.00
2023-04-11T08:06:40.366Z,40.00
2023-04-11T08:07:40.421Z,44.00
2023-04-11T08:08:40.483Z,32.00
2023-04-11T08:09:41.429Z,28.00
2023-04-11T08:10:40.609Z,32.00
2023-04-11T08:11:40.718Z,40.00
2023-04-11T08:12:40.793Z,40.00
2023-04-11T08:13:40.786Z,44.00
2023-04-11T08:14:40.828Z,40.00
2023-04-11T08:15:40.895Z,40.00
2023-04-11T08:16:40.996Z,52.00
2023-04-11T08:17:41.252Z,56.00
2023-04-11T08:18:41.085Z,68.00
2023-04-11T08:19:41.159Z,76.00
2023-04-11T08:20:41.343Z,84.00
2023-04-11T08:21:41.299Z,88.00
2023-04-11T08:22:41.323Z,88.00
2023-04-11T08:23:41.402Z,112.00
2023-04-11T08:24:41.461Z,84.00
2023-04-11T08:25:41.580Z,80.00
2023-04-11T08:26:41.610Z,84.00
2023-04-11T08:27:41.701Z,104.00
2023-04-11T08:28:43.323Z,176.00
2023-04-11T08:29:41.747Z,72.00
2023-04-11T08:30:41.824Z,72.00
2023-04-11T08:31:41.877Z,124.00
2023-04-11T08:32:41.998Z,92.00
2023-04-11T08:33:41.991Z,84.00
2023-04-11T08:34:42.076Z,56.00
2023-04-11T08:35:42.213Z,72.00
2023-04-11T08:36:42.137Z,196.00
2023-04-11T08:37:42.211Z,148.00
2023-04-11T08:38:42.263Z,112.00
2023-04-11T08:39:42.361Z,100.00
2023-04-11T08:40:42.408Z,72.00
2023-04-11T08:41:42.532Z,120.00
2023-04-11T08:42:42.668Z,92.00
2023-04-11T08:43:42.834Z,112.00
2023-04-11T08:44:42.691Z,84.00
2023-04-11T08:45:42.779Z,112.00
2023-04-11T08:46:42.879Z,196.00
2023-04-11T08:47:45.237Z,160.00
2023-04-11T08:50:36.874Z,112.00
2023-04-11T08:51:37.918Z,92.00
2023-04-11T08:52:37.983Z,76.00
2023-04-11T08:53:38.069Z,96.00
2023-04-11T08:54:38.096Z,52.00
2023-04-11T08:55:38.210Z,60.00
2023-04-11T08:56:38.240Z,72.00
2023-04-11T08:57:38.335Z,48.00
2023-04-11T08:58:38.409Z,52.00
2023-04-11T08:59:38.453Z,52.00
2023-04-11T09:00:38.464Z,76.00
2023-04-11T09:01:38.583Z,72.00
2023-04-11T09:02:38.659Z,164.00
2023-04-11T09:03:38.701Z,112.00
2023-04-11T09:04:38.761Z,100.00
2023-04-11T09:05:38.775Z,88.00
2023-04-11T09:11:19.762Z,488.00
2023-04-11T09:12:20.777Z,240.00
2023-04-11T09:13:20.845Z,248.00
2023-04-11T09:17:14.017Z,60.00
2023-04-11T09:18:14.980Z,52.00
2023-04-11T09:19:15.047Z,56.00
2023-04-11T09:20:15.102Z,128.00
2023-04-11T09:21:15.165Z,84.00
2023-04-11T09:22:15.245Z,72.00
2023-04-11T09:23:15.298Z,72.00
2023-04-11T09:24:15.367Z,100.00
2023-04-11T09:25:15.431Z,352.00
2023-04-11T09:26:15.487Z,232.00
2023-04-11T09:27:16.960Z,88.00
2023-04-11T09:28:15.591Z,96.00
2023-04-11T09:29:15.725Z,712.00
2023-04-11T09:30:15.845Z,296.00
2023-04-11T09:31:15.964Z,776.00
2023-04-11T09:32:15.949Z,120.00
2023-04-11T09:33:15.957Z,124.00
2023-04-11T09:34:16.036Z,124.00
2023-04-11T09:35:16.090Z,180.00
2023-04-11T09:36:16.129Z,96.00
2023-04-11T09:37:16.486Z,104.00
2023-04-11T09:38:16.216Z,756.00
2023-04-11T09:39:16.807Z,168.00
2023-04-11T09:40:16.423Z,176.00
2023-04-11T09:41:16.418Z,124.00
2023-04-11T09:42:16.816Z,92.00
2023-04-11T09:43:17.257Z,72.00
2023-04-11T09:44:16.611Z,68.00
2023-04-11T09:45:16.672Z,648.00
2023-04-11T09:46:16.700Z,612.00
2023-04-11T09:47:16.774Z,604.00
2023-04-11T09:48:16.795Z,596.00
2023-04-11T09:49:16.827Z,612.00
2023-04-11T09:50:16.903Z,168.00
2023-04-11T09:51:31.882Z,556.00
2023-04-11T09:52:17.065Z,632.00
2023-04-11T09:53:17.164Z,424.00
2023-04-11T09:54:17.125Z,592.00
2023-04-11T09:55:17.179Z,580.00
2023-04-11T09:56:17.227Z,96.00
2023-04-11T09:57:17.406Z,84.00
2023-04-11T09:58:17.338Z,272.00
2023-04-11T09:59:17.446Z,80.00
2023-04-11T10:00:17.466Z,68.00
2023-04-11T10:01:17.621Z,92.00
2023-04-11T10:02:17.617Z,104.00
2023-04-11T10:03:17.655Z,404.00
2023-04-11T10:04:17.758Z,260.00
2023-04-11T10:05:17.807Z,164.00
2023-04-11T10:06:17.789Z,160.00
2023-04-11T10:07:17.882Z,116.00
2023-04-11T10:08:17.882Z,172.00
2023-04-11T10:09:17.945Z,96.00
2023-04-11T10:10:18.000Z,124.00
2023-04-11T10:11:18.047Z,244.00
2023-04-11T10:12:18.118Z,152.00
2023-04-11T10:13:18.140Z,96.00
2023-04-11T10:14:18.312Z,56.00
2023-04-11T10:15:18.293Z,44.00
2023-04-11T10:16:18.371Z,40.00
2023-04-11T10:17:21.841Z,52.00
2023-04-11T10:18:18.470Z,52.00
2023-04-11T10:19:18.537Z,64.00
2023-04-11T10:20:18.575Z,64.00
2023-04-11T10:21:18.633Z,340.00
2023-04-11T10:22:18.707Z,284.00
2023-04-11T10:23:18.761Z,388.00
2023-04-11T10:24:18.815Z,316.00
2023-04-11T10:25:18.894Z,312.00
2023-04-11T10:26:18.937Z,292.00
2023-04-11T10:27:19.030Z,260.00
2023-04-11T10:28:19.043Z,308.00
2023-04-11T10:29:19.113Z,176.00
2023-04-11T10:30:19.221Z,284.00
2023-04-11T10:31:19.249Z,316.00
2023-04-11T10:32:19.297Z,296.00
2023-04-11T10:33:20.024Z,300.00
2023-04-11T10:34:19.400Z,292.00
2023-04-11T10:35:19.456Z,280.00
2023-04-11T10:36:22.166Z,280.00
2023-04-11T10:37:19.667Z,288.00
2023-04-11T10:38:19.648Z,260.00
2023-04-11T10:39:19.710Z,280.00
2023-04-11T10:40:19.786Z,252.00
2023-04-11T10:41:19.849Z,232.00
2023-04-11T10:42:19.924Z,92.00
2023-04-11T10:45:15.449Z,76.00
2023-04-11T10:46:16.544Z,68.00
2023-04-11T10:47:16.724Z,68.00
2023-04-11T10:48:16.683Z,60.00
2023-04-11T10:49:16.730Z,60.00
2023-04-11T10:50:18.356Z,60.00
2023-04-11T10:51:16.842Z,72.00
2023-04-11T10:52:16.895Z,76.00
2023-04-11T10:53:17.010Z,72.00
2023-04-11T10:54:17.019Z,80.00
2023-04-11T10:55:17.096Z,188.00
2023-04-11T10:56:17.542Z,188.00
2023-04-11T10:57:17.171Z,168.00
2023-04-11T11:00:06.895Z,172.00
2023-04-11T11:01:09.000Z,168.00
2023-04-11T11:02:06.547Z,176.00
2023-04-11T11:03:08.261Z,176.00
2023-04-11T11:04:06.966Z,172.00
2023-04-11T11:05:08.028Z,168.00
2023-04-11T11:06:06.547Z,172.00
2023-04-11T11:07:06.593Z,164.00
2023-04-11T11:08:06.670Z,164.00
2023-04-11T11:09:06.735Z,164.00
2023-04-11T11:10:07.631Z,88.00
2023-04-11T11:11:07.003Z,100.00
2023-04-11T11:12:06.981Z,164.00
2023-04-11T11:13:06.973Z,112.00
2023-04-11T11:14:07.027Z,112.00
2023-04-11T11:18:00.178Z,124.00
2023-04-11T11:19:01.144Z,164.00
2023-04-11T11:20:01.199Z,160.00
2023-04-11T11:21:01.284Z,160.00
2023-04-11T11:22:01.338Z,156.00
2023-04-11T11:23:01.430Z,160.00
2023-04-11T11:24:04.220Z,160.00
2023-04-11T11:25:04.829Z,164.00
2023-04-11T11:26:03.761Z,164.00
2023-04-11T11:27:01.778Z,128.00
2023-04-11T11:28:01.693Z,84.00
2023-04-11T11:29:01.747Z,84.00
2023-04-11T11:30:01.773Z,84.00
2023-04-11T11:31:01.885Z,88.00
2023-04-11T11:32:02.012Z,168.00
2023-04-11T11:33:02.073Z,100.00
2023-04-11T11:34:18.441Z,104.00
2023-04-11T11:35:02.085Z,100.00
2023-04-11T11:36:02.187Z,108.00
2023-04-11T11:37:02.254Z,92.00
2023-04-11T11:38:02.339Z,92.00
2023-04-11T11:39:02.384Z,184.00
2023-04-11T11:40:02.412Z,108.00
2023-04-11T11:41:02.479Z,92.00
2023-04-11T11:42:02.595Z,84.00
2023-04-11T11:43:02.604Z,84.00
2023-04-11T11:44:02.656Z,76.00
2023-04-11T11:45:03.698Z,68.00
2023-04-11T11:46:04.132Z,76.00
2023-04-11T11:47:02.896Z,80.00
2023-04-11T11:48:02.910Z,88.00
2023-04-11T11:49:03.068Z,84.00
2023-04-11T11:50:02.990Z,84.00
2023-04-11T11:51:03.063Z,88.00
2023-04-11T11:52:03.139Z,164.00
2023-04-11T11:53:03.183Z,88.00
2023-04-11T11:54:03.243Z,84.00
2023-04-11T11:55:03.319Z,80.00
2023-04-11T11:56:03.365Z,80.00
2023-04-11T11:57:03.419Z,84.00
2023-04-11T11:58:03.538Z,168.00
2023-04-11T11:59:03.553Z,100.00
2023-04-11T12:00:03.556Z,88.00
2023-04-11T12:01:03.638Z,84.00
2023-04-11T12:02:03.716Z,88.00
2023-04-11T12:03:04.004Z,88.00
2023-04-11T12:04:03.940Z,92.00
2023-04-11T12:05:04.130Z,88.00
2023-04-11T12:06:03.944Z,88.00
2023-04-11T12:07:04.025Z,100.00
2023-04-11T12:08:04.094Z,88.00
2023-04-11T12:09:04.381Z,96.00
2023-04-11T12:10:04.194Z,92.00
2023-04-11T12:11:04.286Z,84.00
2023-04-11T12:12:04.374Z,88.00
2023-04-11T12:13:04.556Z,88.00
2023-04-11T12:14:04.455Z,88.00
2023-04-11T12:15:04.532Z,96.00
2023-04-11T12:16:04.775Z,92.00
2023-04-11T12:17:04.828Z,80.00
2023-04-11T12:18:04.794Z,84.00
2023-04-11T12:19:04.799Z,88.00
2023-04-11T12:20:04.862Z,116.00
2023-04-11T12:21:04.900Z,88.00
2023-04-11T12:22:04.978Z,84.00
2023-04-11T12:23:05.083Z,88.00
2023-04-11T12:24:05.089Z,84.00
2023-04-11T12:25:05.155Z,76.00
2023-04-11T12:26:05.230Z,68.00
2023-04-11T12:29:58.252Z,60.00
2023-04-11T12:30:59.307Z,64.00
2023-04-11T12:31:59.322Z,64.00
2023-04-11T12:32:59.405Z,68.00
2023-04-11T12:33:59.440Z,72.00
2023-04-11T12:34:59.509Z,76.00
2023-04-11T12:35:59.567Z,112.00
2023-04-11T12:36:59.644Z,92.00
2023-04-11T12:37:59.700Z,92.00
2023-04-11T12:38:59.788Z,88.00
2023-04-11T12:40:00.150Z,116.00
2023-04-11T12:41:19.815Z,120.00
2023-04-11T12:41:59.957Z,108.00
2023-04-11T12:43:00.012Z,100.00
2023-04-11T12:44:00.125Z,100.00
2023-04-11T12:45:00.180Z,136.00
2023-04-11T12:46:00.226Z,164.00
2023-04-11T12:47:00.446Z,124.00
2023-04-11T12:48:00.456Z,108.00
2023-04-11T12:49:00.458Z,124.00
2023-04-11T12:50:00.523Z,104.00
2023-04-11T12:51:00.581Z,108.00
2023-04-11T12:52:00.628Z,108.00
2023-04-11T12:53:00.862Z,120.00
2023-04-11T12:54:00.776Z,100.00
2023-04-11T12:55:00.847Z,128.00
2023-04-11T12:56:00.865Z,108.00
2023-04-11T12:57:00.948Z,128.00
2023-04-11T12:58:00.954Z,108.00
2023-04-11T12:59:01.044Z,156.00
2023-04-11T13:00:01.144Z,156.00
2023-04-11T13:01:01.138Z,148.00
2023-04-11T13:02:01.453Z,156.00
2023-04-11T13:03:14.346Z,164.00
2023-04-11T13:04:01.753Z,172.00
2023-04-11T13:05:01.547Z,148.00
2023-04-11T13:06:01.455Z,156.00
2023-04-11T13:07:01.581Z,152.00
2023-04-11T13:08:01.552Z,168.00
2023-04-11T13:09:01.602Z,168.00
2023-04-11T13:10:01.694Z,168.00
2023-04-11T13:11:01.750Z,160.00
2023-04-11T13:12:01.824Z,104.00
2023-04-11T13:13:11.907Z,96.00
2023-04-11T13:14:01.922Z,96.00
2023-04-11T13:15:02.012Z,100.00
2023-04-11T13:16:02.100Z,100.00
2023-04-11T13:17:02.076Z,148.00
2023-04-11T13:18:02.282Z,88.00
2023-04-11T13:19:02.207Z,80.00
2023-04-11T13:20:02.280Z,84.00
2023-04-11T13:21:02.498Z,96.00
2023-04-11T13:22:02.376Z,172.00
2023-04-11T13:23:02.418Z,156.00
2023-04-11T13:24:03.504Z,164.00
2023-04-11T13:25:02.662Z,180.00
2023-04-11T13:26:02.608Z,156.00
2023-04-11T13:27:02.688Z,156.00
2023-04-11T13:28:02.814Z,136.00
2023-04-11T13:29:02.785Z,88.00
2023-04-11T13:30:02.880Z,84.00
2023-04-11T13:31:02.914Z,160.00
2023-04-11T13:32:02.999Z,104.00
2023-04-11T13:33:03.071Z,96.00
2023-04-11T13:34:03.104Z,96.00
2023-04-11T13:35:03.165Z,108.00
2023-04-11T13:36:03.235Z,88.00
2023-04-11T13:37:03.305Z,88.00
2023-04-11T13:38:03.324Z,100.00
2023-04-11T13:39:03.381Z,160.00
2023-04-11T13:40:03.476Z,152.00
2023-04-11T13:41:03.491Z,164.00
2023-04-11T13:42:03.560Z,84.00
2023-04-11T13:43:03.660Z,76.00
2023-04-11T13:44:03.672Z,80.00
2023-04-11T13:45:03.743Z,88.00
2023-04-11T13:46:03.911Z,84.00
2023-04-11T13:47:03.859Z,76.00
2023-04-11T13:48:03.992Z,88.00
2023-04-11T13:49:03.981Z,108.00
2023-04-11T13:50:04.053Z,104.00
2023-04-11T13:51:04.111Z,80.00
2023-04-11T13:52:04.185Z,76.00
2023-04-11T13:53:04.225Z,80.00
2023-04-11T13:54:04.270Z,84.00
2023-04-11T13:55:04.409Z,100.00
2023-04-11T13:56:04.349Z,156.00
2023-04-11T13:57:04.409Z,172.00
2023-04-11T13:58:04.471Z,176.00
2023-04-11T13:59:04.518Z,160.00
2023-04-11T14:00:04.661Z,68.00
2023-04-11T14:01:04.736Z,64.00
2023-04-11T14:02:04.713Z,60.00
2023-04-11T14:03:05.186Z,64.00
2023-04-11T14:04:04.932Z,64.00
2023-04-11T14:05:04.932Z,72.00
2023-04-11T14:06:04.983Z,72.00
2023-04-11T14:07:05.193Z,76.00
2023-04-11T14:08:05.164Z,76.00
2023-04-11T14:09:05.158Z,56.00